Time;durP1;ratioP1;P1;durP2;ratioP2;P2;SDS_P1;SDS_P2;PMS_P1;PMS_P2;Temp;Humidity;BMP_temperature;BMP_pressure;BME280_temperature;BME280_humidity;BME280_pressure;Samples;Min_cycle;Max_cycle;Signal;HPM_P1;HPM_P2
2023/06/24 00:01:26;;;;;;;4.80;3.60;;;;;;;19.22;92.74;96815.77;112232;1243;22530;-88
2023/06/24 00:03:57;;;;;;;6.00;4.00;;;;;;;19.20;92.63;96819.45;112203;1243;25658;-88
2023/06/24 00:06:26;;;;;;;4.30;3.40;;;;;;;19.18;92.62;96825.07;112226;1241;22612;-88
2023/06/24 00:09:00;;;;;;;8.10;3.70;;;;;;;19.16;92.61;96818.08;112185;1242;32276;-88
2023/06/24 00:11:29;;;;;;;4.90;3.30;;;;;;;19.14;92.68;96813.19;112242;1243;22522;-88
2023/06/24 00:13:58;;;;;;;5.70;3.70;;;;;;;19.14;92.62;96813.98;112212;1243;22568;-88
2023/06/24 00:16:27;;;;;;;5.80;4.10;;;;;;;19.14;92.60;96809.75;112231;1243;22535;-88
2023/06/24 00:18:58;;;;;;;4.90;3.50;;;;;;;19.11;92.16;96812.05;112114;1243;111007;-88
2023/06/24 00:21:29;;;;;;;4.70;3.90;;;;;;;19.05;92.26;96816.98;112241;1243;22485;-88
2023/06/24 00:24:04;;;;;;;7.20;3.40;;;;;;;18.98;92.12;96814.64;112239;1237;22627;-88
2023/06/24 00:26:32;;;;;;;3.90;3.50;;;;;;;18.93;92.11;96807.54;112220;1237;23829;-88
2023/06/24 00:29:01;;;;;;;4.60;3.70;;;;;;;18.90;92.29;96807.51;112207;1243;37663;-88
2023/06/24 00:31:29;;;;;;;6.00;3.80;;;;;;;18.88;92.43;96804.45;112254;1243;24258;-88
2023/06/24 00:33:59;;;;;;;7.70;3.50;;;;;;;18.89;92.35;96808.72;112181;1243;24189;-89
2023/06/24 00:36:28;;;;;;;4.70;3.50;;;;;;;18.85;92.38;96809.11;112238;1243;22547;-88
2023/06/24 00:39:03;;;;;;;3.70;3.20;;;;;;;18.86;92.58;96804.84;112199;1243;22486;-88
2023/06/24 00:41:32;;;;;;;5.20;3.20;;;;;;;18.88;92.41;96804.37;112232;1243;24179;-88
2023/06/24 00:44:02;;;;;;;4.20;3.40;;;;;;;18.87;92.44;96806.02;112229;1243;25560;-88
2023/06/24 00:46:31;;;;;;;5.60;3.20;;;;;;;18.84;92.43;96802.23;112235;1243;22510;-88
2023/06/24 00:49:00;;;;;;;;;;;;;;;18.81;92.28;96803.64;112225;1243;37168;-88
2023/06/24 00:51:31;;;;;;;4.00;3.50;;;;;;;18.75;92.35;96801.51;112222;1243;24369;-88
2023/06/24 00:54:00;;;;;;;7.00;3.50;;;;;;;18.71;92.32;96805.10;112252;1243;22489;-87
2023/06/24 00:56:32;;;;;;;6.60;3.50;;;;;;;18.68;92.39;96802.98;112218;1243;24220;-88
2023/06/24 00:59:02;;;;;;;4.80;3.70;;;;;;;18.68;92.65;96804.38;112209;1240;56908;-88
2023/06/24 01:01:35;;;;;;;6.80;3.30;;;;;;;18.70;92.77;96809.36;112236;1243;22505;-88
2023/06/24 01:04:07;;;;;;;6.90;4.10;;;;;;;18.69;92.82;96811.86;112248;1243;22555;-88
2023/06/24 01:06:43;;;;;;;4.20;3.50;;;;;;;18.66;92.72;96813.34;112235;1243;22490;-87
2023/06/24 01:09:12;;;;;;;5.10;3.60;;;;;;;18.65;92.80;96812.53;112236;1243;22513;-87
2023/06/24 01:11:41;;;;;;;4.80;3.70;;;;;;;18.63;92.75;96809.94;112223;1241;22489;-87
2023/06/24 01:14:09;;;;;;;3.70;3.30;;;;;;;18.65;92.67;96806.88;112237;1243;22521;-87
2023/06/24 01:16:45;;;;;;;3.80;3.30;;;;;;;18.66;92.58;96803.70;112234;1241;25250;-87
2023/06/24 01:19:33;;;;;;;3.50;3.20;;;;;;;18.70;92.67;96797.39;112244;1243;25053;-87
2023/06/24 01:22:12;;;;;;;3.90;3.50;;;;;;;18.73;92.55;96798.59;112238;1243;22517;-87
2023/06/24 01:24:57;;;;;;;4.00;3.50;;;;;;;18.72;91.97;96800.52;112267;1243;24189;-87
2023/06/24 01:28:13;;;;;;;4.20;3.40;;;;;;;18.73;91.70;96800.89;112243;1243;22571;-86
2023/06/24 01:31:00;;;;;;;4.40;4.00;;;;;;;18.74;91.64;96797.41;112217;1243;25349;-87
2023/06/24 01:33:43;;;;;;;4.10;3.00;;;;;;;18.71;91.60;96800.70;112272;1243;22499;-87
2023/06/24 01:36:15;;;;;;;4.30;3.50;;;;;;;18.67;91.74;96807.27;112272;1243;22537;-87
2023/06/24 01:38:47;;;;;;;5.40;3.60;;;;;;;18.64;91.72;96810.66;112246;1243;23233;-87
2023/06/24 01:41:21;;;;;;;4.40;3.30;;;;;;;18.63;91.82;96816.34;112263;1243;22553;-88
2023/06/24 01:43:52;;;;;;;4.80;3.10;;;;;;;18.62;91.58;96819.06;112243;1243;22507;-87
2023/06/24 01:46:24;;;;;;;4.80;3.80;;;;;;;18.60;91.51;96819.92;112278;1243;22501;-87
2023/06/24 01:48:58;;;;;;;4.70;3.60;;;;;;;18.60;91.41;96826.05;112222;1243;87749;-88
2023/06/24 01:51:29;;;;;;;4.60;3.10;;;;;;;18.58;91.26;96824.71;112253;1241;22593;-87
2023/06/24 01:54:03;;;;;;;5.60;3.70;;;;;;;18.59;91.15;96820.50;112267;1243;22533;-88
2023/06/24 01:56:42;;;;;;;8.40;4.00;;;;;;;18.59;91.31;96822.27;112240;1240;22528;-87
2023/06/24 01:59:15;;;;;;;4.10;3.50;;;;;;;18.60;91.41;96830.52;112241;1243;65953;-87
2023/06/24 02:01:46;;;;;;;6.40;4.40;;;;;;;18.56;91.26;96830.52;112256;1241;22535;-87
2023/06/24 02:04:22;;;;;;;5.10;3.70;;;;;;;18.55;91.33;96829.45;112248;1243;25267;-88
2023/06/24 02:06:55;;;;;;;7.20;4.40;;;;;;;18.53;91.33;96833.53;112253;1243;22586;-87
2023/06/24 02:09:25;;;;;;;5.70;4.00;;;;;;;18.52;91.53;96836.79;112232;1243;43049;-87
2023/06/24 02:11:57;;;;;;;8.80;3.60;;;;;;;18.53;91.48;96838.27;112266;1243;22501;-87
2023/06/24 02:14:27;;;;;;;4.00;3.50;;;;;;;18.53;91.25;96837.19;112260;1240;22617;-88
2023/06/24 02:16:58;;;;;;;4.40;3.10;;;;;;;18.53;91.04;96832.52;112273;1243;22565;-87
2023/06/24 02:19:31;;;;;;;3.70;3.40;;;;;;;18.56;91.01;96832.16;112172;1243;102924;-87
2023/06/24 02:22:01;;;;;;;4.90;3.60;;;;;;;18.59;90.92;96830.86;112276;1240;22517;-86
2023/06/24 02:24:30;;;;;;;4.30;3.50;;;;;;;18.59;90.69;96831.83;112252;1243;22699;-87
2023/06/24 02:27:01;;;;;;;4.20;3.00;;;;;;;18.59;90.73;96826.31;112289;1243;24238;-87
2023/06/24 02:29:31;;;;;;;4.10;3.70;;;;;;;18.59;90.60;96830.86;112247;1243;39743;-86
2023/06/24 02:31:58;;;;;;;;;;;;;;;18.60;90.77;96830.06;112283;1241;24208;-86
2023/06/24 02:34:27;;;;;;;4.70;3.40;;;;;;;18.58;90.49;96827.95;112278;1243;22525;-86
2023/06/24 02:36:58;;;;;;;5.40;3.10;;;;;;;18.56;90.46;96830.86;112281;1243;22589;-87
2023/06/24 02:39:27;;;;;;;3.90;3.60;;;;;;;18.54;90.62;96827.88;112212;1243;76155;-86
2023/06/24 02:41:58;;;;;;;5.50;3.40;;;;;;;18.53;90.40;96835.59;112313;1243;25312;-86
2023/06/24 02:44:32;;;;;;;4.00;3.40;;;;;;;18.53;90.50;96833.38;112265;1243;22503;-86
2023/06/24 02:47:01;;;;;;;5.10;3.30;;;;;;;18.54;90.43;96838.86;112288;1243;22536;-87
2023/06/24 02:49:31;;;;;;;8.00;4.30;;;;;;;18.55;90.27;96840.59;110918;1243;1747599;-86
2023/06/24 02:52:03;;;;;;;4.20;3.30;;;;;;;18.54;90.19;96845.91;112310;1240;22526;-86
2023/06/24 02:54:39;;;;;;;4.30;3.50;;;;;;;18.54;90.22;96845.30;112264;1243;22514;-86
2023/06/24 02:57:10;;;;;;;5.10;3.50;;;;;;;18.56;90.12;96842.35;112283;1243;22504;-86
2023/06/24 02:59:38;;;;;;;6.60;3.40;;;;;;;18.56;89.82;96836.25;112242;1241;71009;-86
2023/06/24 03:02:08;;;;;;;4.70;3.90;;;;;;;18.54;89.76;96835.77;112286;1243;22525;-86
2023/06/24 03:04:39;;;;;;;;;;;;;;;18.51;89.55;96836.83;112305;1243;24239;-86
2023/06/24 03:07:10;;;;;;;4.90;3.80;;;;;;;18.48;89.79;96835.48;112312;1243;22509;-86
2023/06/24 03:09:45;;;;;;;5.10;3.70;;;;;;;18.48;89.84;96835.09;112210;1243;101401;-86
2023/06/24 03:12:14;;;;;;;4.40;3.50;;;;;;;18.49;89.75;96833.69;112288;1243;24238;-86
2023/06/24 03:14:42;;;;;;;6.40;3.90;;;;;;;18.49;89.63;96836.91;112283;1243;22573;-87
2023/06/24 03:17:11;;;;;;;4.50;3.80;;;;;;;18.49;89.49;96836.05;112179;1243;22669;-86
2023/06/24 03:19:42;;;;;;;7.00;3.90;;;;;;;18.48;89.45;96835.17;112243;1243;56315;-86
2023/06/24 03:22:10;;;;;;;5.20;3.60;;;;;;;18.48;89.29;96838.08;112293;1243;22542;-86
2023/06/24 03:24:39;;;;;;;3.80;3.40;;;;;;;18.46;89.19;96841.06;112281;1243;22540;-86
2023/06/24 03:27:07;;;;;;;3.50;3.20;;;;;;;18.45;89.26;96840.03;112292;1243;22541;-86
2023/06/24 03:29:37;;;;;;;6.30;3.80;;;;;;;18.42;89.03;96832.98;112220;1241;64994;-86
2023/06/24 03:32:08;;;;;;;3.80;3.40;;;;;;;18.41;89.05;96832.28;112288;1243;25361;-86
2023/06/24 03:34:39;;;;;;;4.50;3.30;;;;;;;18.41;88.86;96828.83;112267;1243;22531;-86
2023/06/24 03:37:08;;;;;;;4.00;3.40;;;;;;;18.37;88.82;96824.39;112264;1243;22515;-86
2023/06/24 03:39:38;;;;;;;6.40;4.20;;;;;;;18.34;88.94;96820.30;112173;1243;107129;-86
2023/06/24 03:42:05;;;;;;;;;;;;;;;18.32;88.75;96819.81;112298;1243;22529;-86
2023/06/24 03:44:36;;;;;;;4.40;3.70;;;;;;;18.29;88.92;96819.52;112308;1240;25238;-86
2023/06/24 03:47:06;;;;;;;4.30;3.80;;;;;;;18.27;88.72;96817.21;112322;1243;24108;-85
2023/06/24 03:49:35;;;;;;;5.70;4.20;;;;;;;18.25;88.73;96816.28;112251;1243;46081;-85
2023/06/24 03:52:05;;;;;;;6.30;4.40;;;;;;;18.22;88.85;96816.96;112287;1243;22492;-86
2023/06/24 03:54:36;;;;;;;6.10;4.80;;;;;;;18.21;88.65;96818.08;112290;1243;22501;-86
2023/06/24 03:57:08;;;;;;;6.50;4.90;;;;;;;18.19;88.50;96816.39;112278;1243;25728;-86
2023/06/24 03:59:40;;;;;;;5.10;4.10;;;;;;;18.19;88.48;96814.14;112278;1243;35925;-86
2023/06/24 04:02:11;;;;;;;5.80;4.50;;;;;;;18.18;88.50;96819.33;112147;1243;22522;-86
2023/06/24 04:04:39;;;;;;;7.10;5.30;;;;;;;18.17;88.43;96818.20;112293;1243;22548;-86
2023/06/24 04:07:14;;;;;;;5.50;4.30;;;;;;;18.15;88.36;96828.39;112296;1243;22507;-86
2023/06/24 04:09:43;;;;;;;5.50;4.90;;;;;;;18.12;88.44;96825.96;112273;1243;50830;-87
2023/06/24 04:12:14;;;;;;;6.60;5.20;;;;;;;18.11;88.43;96827.23;112285;1243;22587;-86
2023/06/24 04:14:42;;;;;;;5.20;4.70;;;;;;;18.09;88.45;96825.95;112274;1243;22692;-86
2023/06/24 04:17:16;;;;;;;6.10;5.20;;;;;;;18.08;88.49;96834.26;112317;1243;23315;-85
2023/06/24 04:19:45;;;;;;;10.30;5.70;;;;;;;18.08;88.58;96835.93;112253;1243;49849;-86
2023/06/24 04:22:14;;;;;;;6.50;5.20;;;;;;;18.09;88.59;96844.73;112310;1243;22511;-86
2023/06/24 04:24:43;;;;;;;9.70;5.30;;;;;;;18.09;88.57;96846.93;112291;1243;22983;-86
2023/06/24 04:27:12;;;;;;;8.10;5.40;;;;;;;18.11;88.69;96851.38;112315;1243;22511;-86
2023/06/24 04:29:40;;;;;;;7.90;5.60;;;;;;;18.12;88.78;96858.60;112280;1243;44785;-85
2023/06/24 04:32:09;;;;;;;6.50;5.00;;;;;;;18.14;88.77;96853.17;112312;1243;22517;-85
2023/06/24 04:34:38;;;;;;;6.60;5.20;;;;;;;18.16;88.84;96859.55;112302;1243;23321;-86
2023/06/24 04:37:06;;;;;;;9.80;5.00;;;;;;;18.17;88.78;96861.16;112281;1243;24089;-85
2023/06/24 04:39:35;;;;;;;5.60;4.90;;;;;;;18.15;88.67;96862.73;112229;1243;80989;-85
2023/06/24 04:42:05;;;;;;;6.00;5.30;;;;;;;18.15;88.74;96862.94;112252;1243;22512;-85
2023/06/24 04:44:37;;;;;;;6.80;5.00;;;;;;;18.13;88.60;96864.73;112318;1243;22509;-86
2023/06/24 04:47:06;;;;;;;6.20;5.00;;;;;;;18.11;88.68;96867.41;112284;1243;22618;-85
2023/06/24 04:49:37;;;;;;;;;;;;;;;18.09;88.82;96867.80;112293;1243;33344;-85
2023/06/24 04:52:08;;;;;;;5.40;4.90;;;;;;;18.07;88.84;96871.02;112298;1240;22636;-86
2023/06/24 04:54:39;;;;;;;7.50;5.70;;;;;;;18.05;88.92;96866.62;112319;1243;22493;-86
2023/06/24 04:57:10;;;;;;;6.00;5.30;;;;;;;18.03;89.08;96866.95;112289;1243;22513;-86
2023/06/24 04:59:44;;;;;;;5.70;5.00;;;;;;;18.03;89.00;96866.77;112265;1243;81938;-86
2023/06/24 05:02:12;;;;;;;7.50;5.30;;;;;;;18.01;89.07;96869.11;112336;1240;22511;-86
2023/06/24 05:04:44;;;;;;;5.40;4.70;;;;;;;18.00;89.33;96864.40;112301;1241;22508;-85
2023/06/24 05:07:13;;;;;;;6.10;5.10;;;;;;;17.98;89.31;96867.64;112331;1243;24217;-86
2023/06/24 05:09:43;;;;;;;6.60;5.00;;;;;;;17.97;89.42;96869.09;112255;1243;69973;-86
2023/06/24 05:12:14;;;;;;;6.20;5.60;;;;;;;17.96;89.57;96872.82;112343;1243;22611;-86
2023/06/24 05:14:43;;;;;;;6.60;5.60;;;;;;;17.93;89.63;96871.70;112304;1228;22506;-85
2023/06/24 05:17:11;;;;;;;6.50;5.80;;;;;;;17.91;89.88;96868.17;112345;1243;22494;-86
2023/06/24 05:19:40;;;;;;;9.40;6.10;;;;;;;17.89;89.84;96863.45;112255;1243;73138;-85
2023/06/24 05:22:11;;;;;;;7.90;6.40;;;;;;;17.88;89.98;96863.91;112315;1243;22511;-85
2023/06/24 05:24:41;;;;;;;7.40;6.60;;;;;;;17.85;90.07;96864.29;112316;1243;22506;-86
2023/06/24 05:27:10;;;;;;;8.50;6.50;;;;;;;17.81;90.32;96865.16;112351;1241;22536;-86
2023/06/24 05:29:38;;;;;;;8.40;6.70;;;;;;;17.80;90.67;96869.35;112308;1243;37461;-86
2023/06/24 05:32:10;;;;;;;8.90;6.70;;;;;;;17.82;90.98;96872.09;112303;1243;25341;-86
2023/06/24 05:34:38;;;;;;;8.90;6.90;;;;;;;17.85;91.24;96872.65;112303;1243;22713;-86
2023/06/24 05:37:08;;;;;;;9.60;7.00;;;;;;;17.85;91.30;96870.66;112317;1243;25289;-86
2023/06/24 05:39:36;;;;;;;7.50;6.70;;;;;;;17.86;91.35;96873.52;112316;1240;40334;-86
2023/06/24 05:42:05;;;;;;;7.50;6.60;;;;;;;17.86;91.52;96875.14;112314;1243;22510;-86
2023/06/24 05:44:37;;;;;;;7.40;6.60;;;;;;;17.85;91.53;96880.54;112308;1243;22509;-88
2023/06/24 05:47:06;;;;;;;7.10;6.40;;;;;;;17.85;91.68;96880.22;112295;1241;22498;-87
2023/06/24 05:49:35;;;;;;;6.90;5.70;;;;;;;17.84;91.72;96879.42;112263;1243;62182;-87
2023/06/24 05:52:12;;;;;;;7.10;6.10;;;;;;;17.81;91.64;96882.63;112331;1243;23219;-87
2023/06/24 05:54:43;;;;;;;7.90;6.40;;;;;;;17.80;91.78;96882.58;112316;1243;22551;-87
2023/06/24 05:57:14;;;;;;;7.10;6.00;;;;;;;17.80;91.85;96886.70;112376;1243;22556;-87
2023/06/24 05:59:43;;;;;;;7.80;6.50;;;;;;;17.80;91.92;96890.08;112267;1243;54750;-88
2023/06/24 06:02:14;;;;;;;7.90;6.30;;;;;;;17.78;92.06;96895.60;112324;1243;22544;-88
2023/06/24 06:04:42;;;;;;;;;;;;;;;17.77;92.07;96894.09;112336;1243;22577;-87
2023/06/24 06:07:14;;;;;;;8.20;6.90;;;;;;;17.71;92.13;96901.11;112301;1243;22540;-87
2023/06/24 06:09:43;;;;;;;12.60;7.50;;;;;;;17.68;92.14;96900.67;112264;1243;59251;-88
2023/06/24 06:12:15;;;;;;;7.90;6.50;;;;;;;17.65;92.45;96905.20;112335;1243;22583;-88
2023/06/24 06:14:44;;;;;;;10.50;7.10;;;;;;;17.62;92.59;96906.21;112313;1243;25335;-88
2023/06/24 06:17:17;;;;;;;9.60;7.20;;;;;;;17.58;92.77;96904.50;112128;1243;22539;-88
2023/06/24 06:19:48;;;;;;;9.90;7.10;;;;;;;17.58;93.02;96906.70;112257;1243;85112;-88
2023/06/24 06:22:23;;;;;;;7.80;6.80;;;;;;;17.56;93.25;96906.02;112318;1243;22544;-88
2023/06/24 06:24:53;;;;;;;9.00;6.90;;;;;;;17.55;93.33;96908.89;112310;1243;22518;-87
2023/06/24 06:27:26;;;;;;;7.70;6.40;;;;;;;17.54;93.56;96913.59;112365;1243;22519;-88
2023/06/24 06:29:55;;;;;;;7.80;5.90;;;;;;;17.55;93.80;96917.88;112206;1243;158955;-87
2023/06/24 06:32:25;;;;;;;7.40;6.30;;;;;;;17.53;93.81;96921.19;112304;1243;25317;-89
2023/06/24 06:35:00;;;;;;;7.60;6.60;;;;;;;17.53;94.11;96920.81;112355;1243;22534;-88
2023/06/24 06:37:29;;;;;;;7.60;6.50;;;;;;;17.55;94.28;96924.15;112348;1243;22515;-88
2023/06/24 06:40:01;;;;;;;7.60;6.20;;;;;;;17.56;94.49;96925.61;110748;1243;2034353;-88
2023/06/24 06:42:30;;;;;;;7.70;6.00;;;;;;;17.59;94.72;96931.25;112320;1243;22482;-88
2023/06/24 06:45:02;;;;;;;8.60;6.70;;;;;;;17.60;94.74;96930.64;112360;1243;22547;-89
2023/06/24 06:47:31;;;;;;;7.90;6.40;;;;;;;17.63;95.05;96932.59;112351;1243;24345;-89
2023/06/24 06:50:03;;;;;;;7.90;6.40;;;;;;;17.64;95.12;96936.79;110946;1243;1799763;-89
2023/06/24 06:52:34;;;;;;;7.10;6.10;;;;;;;17.63;95.14;96942.27;112323;1243;22590;-87
2023/06/24 06:55:03;;;;;;;7.50;6.00;;;;;;;17.61;95.22;96946.31;112331;1243;22492;-86
2023/06/24 06:57:32;;;;;;;7.90;5.90;;;;;;;17.58;95.10;96948.15;112335;1243;22924;-87
2023/06/24 07:00:04;;;;;;;7.30;6.50;;;;;;;17.55;95.13;96951.27;112267;1243;65166;-87
2023/06/24 07:02:35;;;;;;;6.80;6.10;;;;;;;17.50;95.38;96956.93;112326;1243;23308;-86
2023/06/24 07:05:05;;;;;;;9.00;5.80;;;;;;;17.47;95.66;96960.71;112312;1243;22686;-87
2023/06/24 07:07:34;;;;;;;8.00;5.90;;;;;;;17.46;95.72;96958.77;112320;1243;22517;-87
2023/06/24 07:10:03;;;;;;;6.50;5.10;;;;;;;17.41;95.94;96961.38;110782;1243;2037255;-87
2023/06/24 07:12:32;;;;;;;6.10;5.50;;;;;;;17.41;96.19;96958.95;112305;1243;22539;-87
2023/06/24 07:15:00;;;;;;;7.70;5.50;;;;;;;17.42;96.41;96961.83;112337;1243;22538;-86
2023/06/24 07:17:34;;;;;;;5.70;4.90;;;;;;;17.45;96.52;96961.42;112326;1243;22458;-89
2023/06/24 07:20:08;;;;;;;6.30;4.70;;;;;;;17.43;96.45;96964.63;112144;1243;34451;-89
2023/06/24 07:22:37;;;;;;;5.40;4.60;;;;;;;17.43;96.82;96966.52;112340;1243;22507;-89
2023/06/24 07:25:06;;;;;;;;;;;;;;;17.47;96.96;96970.12;112170;1243;22484;-93
2023/06/24 07:27:35;;;;;;;8.20;4.30;;;;;;;17.48;97.15;96974.65;112336;1243;25239;-91
2023/06/24 07:30:37;;;;;;;5.50;4.90;;;;;;;17.48;97.16;96973.92;112290;1243;63781;-91
2023/06/24 07:33:08;;;;;;;5.20;4.60;;;;;;;17.51;97.51;96975.13;112335;1243;23513;-91
2023/06/24 07:35:37;;;;;;;4.90;4.00;;;;;;;17.55;97.63;96973.89;112373;1243;25348;-91
2023/06/24 07:38:05;;;;;;;5.70;4.40;;;;;;;17.57;97.57;96975.21;112324;1243;24356;-91
2023/06/24 07:40:36;;;;;;;6.40;4.10;;;;;;;17.59;97.58;96981.49;112273;1243;53236;-92
2023/06/24 07:43:05;;;;;;;4.90;4.20;;;;;;;17.56;97.63;96976.07;112363;1241;22524;-90
2023/06/24 07:45:34;;;;;;;4.10;3.50;;;;;;;17.54;97.83;96982.29;112343;1240;23085;-91
2023/06/24 07:48:04;;;;;;;3.70;2.90;;;;;;;17.50;97.84;96977.36;112330;1243;22555;-91
2023/06/24 07:50:36;;;;;;;3.30;2.30;;;;;;;17.48;98.01;96982.85;112245;1240;62199;-91
2023/06/24 07:53:05;;;;;;;2.90;2.10;;;;;;;17.45;97.99;96987.52;112321;1243;22514;-91
2023/06/24 07:55:36;;;;;;;1.80;1.70;;;;;;;17.42;98.08;96992.00;112334;1243;23396;-90
2023/06/24 07:58:05;;;;;;;2.70;1.70;;;;;;;17.40;98.14;96995.06;112336;1243;22704;-91
2023/06/24 08:00:34;;;;;;;2.10;1.70;;;;;;;17.39;98.28;96999.51;112285;1243;52233;-90
2023/06/24 08:03:06;;;;;;;4.50;2.00;;;;;;;17.39;98.56;97003.89;112340;1243;22503;-90
2023/06/24 08:05:40;;;;;;;3.50;2.00;;;;;;;17.39;98.73;97004.20;112338;1243;22558;-90
2023/06/24 08:08:09;;;;;;;1.80;1.60;;;;;;;17.39;98.78;97007.20;112420;1235;22559;-90
2023/06/24 08:10:38;;;;;;;3.10;1.70;;;;;;;17.40;99.13;97007.14;112232;1243;61924;-90
2023/06/24 08:13:08;;;;;;;1.60;1.20;;;;;;;17.40;99.30;97010.76;112273;1243;22562;-90
2023/06/24 08:15:38;;;;;;;7.30;1.80;;;;;;;17.41;99.37;97014.98;112329;1236;22512;-91
2023/06/24 08:18:10;;;;;;;4.20;1.20;;;;;;;17.43;99.53;97016.85;112297;1240;22615;-92
2023/06/24 08:20:41;;;;;;;2.70;1.30;;;;;;;17.45;99.54;97016.64;112335;1240;35724;-91
2023/06/24 08:23:10;;;;;;;1.80;1.20;;;;;;;17.45;99.52;97019.31;112326;1243;24393;-91
2023/06/24 08:25:45;;;;;;;2.80;1.40;;;;;;;17.46;99.77;97025.14;112352;1243;25373;-89
2023/06/24 08:28:17;;;;;;;1.80;1.00;;;;;;;17.47;99.86;97022.96;112317;1243;22990;-89
2023/06/24 08:30:49;;;;;;;1.60;1.00;;;;;;;17.50;99.95;97022.46;112191;1241;116093;-89
2023/06/24 08:33:20;;;;;;;2.80;1.10;;;;;;;17.50;99.96;97027.45;112322;1243;22509;-90
2023/06/24 08:35:48;;;;;;;1.80;1.10;;;;;;;17.50;100.00;97031.77;112307;1243;22488;-89
2023/06/24 08:38:21;;;;;;;1.80;0.90;;;;;;;17.51;100.00;97030.40;112305;1243;26132;-89
2023/06/24 08:40:51;;;;;;;1.20;1.00;;;;;;;17.50;99.98;97031.14;112269;1243;41975;-88
2023/06/24 08:43:19;;;;;;;;;;;;;;;17.50;100.00;97034.48;112322;1243;22476;-89
2023/06/24 08:45:52;;;;;;;0.90;0.90;;;;;;;17.48;100.00;97034.73;112339;1243;22530;-89
2023/06/24 08:48:26;;;;;;;1.10;1.00;;;;;;;17.48;100.00;97030.50;112330;1243;22552;-89
2023/06/24 08:50:58;;;;;;;2.70;1.40;;;;;;;17.49;100.00;97032.67;112256;1243;60570;-88
2023/06/24 08:53:27;;;;;;;1.40;1.10;;;;;;;17.50;100.00;97035.33;112321;1243;25324;-85
2023/06/24 08:55:58;;;;;;;1.60;1.50;;;;;;;17.51;100.00;97035.83;112300;1243;22530;-84
2023/06/24 08:58:27;;;;;;;1.70;1.50;;;;;;;17.53;100.00;97030.24;112149;1243;22495;-84
2023/06/24 09:01:00;;;;;;;2.00;1.80;;;;;;;17.52;100.00;97031.45;112289;1243;36307;-84
2023/06/24 09:03:29;;;;;;;2.10;1.80;;;;;;;17.52;100.00;97035.73;112306;1243;23455;-85
2023/06/24 09:05:58;;;;;;;1.70;1.60;;;;;;;17.54;100.00;97036.05;112283;1243;22545;-84
2023/06/24 09:08:29;;;;;;;1.80;1.20;;;;;;;17.57;100.00;97039.62;112172;1239;22565;-84
2023/06/24 09:10:59;;;;;;;2.10;1.30;;;;;;;17.58;100.00;97047.25;112279;1243;71512;-84
2023/06/24 09:13:36;;;;;;;2.50;1.70;;;;;;;17.58;100.00;97045.42;112343;1243;22496;-85
2023/06/24 09:16:15;;;;;;;1.30;1.20;;;;;;;17.57;100.00;97049.50;112321;1243;22502;-85
2023/06/24 09:18:50;;;;;;;2.20;2.00;;;;;;;17.57;100.00;97050.27;112289;1243;22513;-85
2023/06/24 09:21:30;;;;;;;3.10;2.20;;;;;;;17.59;100.00;97053.56;112275;1243;88596;-83
2023/06/24 09:24:00;;;;;;;2.80;1.50;;;;;;;17.61;100.00;97056.73;112281;1239;22540;-87
2023/06/24 09:26:30;;;;;;;1.90;1.50;;;;;;;17.64;100.00;97059.67;112307;1243;22521;-86
2023/06/24 09:28:59;;;;;;;;;;;;;;;17.68;100.00;97064.63;112328;1243;24244;-87
2023/06/24 09:31:28;;;;;;;1.60;1.50;;;;;;;17.70;100.00;97063.27;112292;1240;22540;-87
2023/06/24 09:34:01;;;;;;;1.60;1.40;;;;;;;17.75;100.00;97061.71;112313;1243;25222;-87
2023/06/24 09:52:27;;;;;;;;;;;;;;;;;;;;;
2023/06/24 10:03:07;;;;;;;18.70;15.50;;;;;;;17.92;100.00;97090.39;110496;1255;22563;-86
2023/06/24 10:06:24;;;;;;;17.40;15.70;;;;;;;17.92;100.00;97089.95;110138;1255;23101;-86
2023/06/24 10:09:19;;;;;;;18.40;16.50;;;;;;;17.96;100.00;97094.11;109905;1254;22535;-87
2023/06/24 10:11:58;;;;;;;19.40;17.40;;;;;;;17.97;100.00;97096.77;111314;1239;138535;-86
2023/06/24 10:14:42;;;;;;;17.90;16.10;;;;;;;17.95;100.00;97099.83;112019;1243;22501;-86
2023/06/24 10:17:34;;;;;;;17.20;15.40;;;;;;;17.95;100.00;97103.23;112306;1243;22504;-86
2023/06/24 10:20:09;;;;;;;16.90;15.30;;;;;;;17.94;100.00;97110.11;112280;1241;57961;-86
2023/06/24 10:22:39;;;;;;;17.60;15.70;;;;;;;17.96;100.00;97111.98;112386;1242;22502;-89
2023/06/24 10:25:18;;;;;;;17.60;15.80;;;;;;;17.98;100.00;97111.59;112432;1242;22530;-88
2023/06/24 10:27:51;;;;;;;18.50;16.60;;;;;;;18.01;100.00;97110.29;112510;1242;22571;-88
2023/06/24 10:30:27;;;;;;;17.10;15.40;;;;;;;18.01;100.00;97119.02;112365;1242;120902;-90
2023/06/24 10:32:58;;;;;;;17.30;15.50;;;;;;;17.97;100.00;97118.61;112431;1242;22509;-89
2023/06/24 10:35:30;;;;;;;19.20;17.40;;;;;;;17.95;100.00;97119.02;112411;1242;22517;-88
2023/06/24 10:38:01;;;;;;;19.00;17.20;;;;;;;17.94;100.00;97119.20;112386;1238;22622;-88
2023/06/24 10:40:38;;;;;;;20.00;17.90;;;;;;;17.94;100.00;97122.15;112375;1242;46940;-88
2023/06/24 10:43:29;;;;;;;21.30;18.40;;;;;;;17.89;100.00;97119.29;112370;1240;25349;-89
2023/06/24 10:45:59;;;;;;;24.20;22.00;;;;;;;17.83;99.87;97125.23;112398;1242;22509;-89
2023/06/24 10:48:28;;;;;;;;;;;;;;;17.76;99.92;97128.45;112397;1242;22476;-88
2023/06/24 10:50:58;;;;;;;;;;;;;;;17.73;99.98;97127.13;112384;1238;33309;-88
2023/06/24 10:53:30;;;;;;;20.70;18.90;;;;;;;17.73;100.00;97128.05;112403;1242;22504;-88
2023/06/24 10:56:02;;;;;;;21.10;19.10;;;;;;;17.70;100.00;97126.08;112355;1238;24218;-88
2023/06/24 10:58:31;;;;;;;22.00;20.00;;;;;;;17.67;100.00;97129.73;112401;1242;22552;-88
2023/06/24 11:01:15;;;;;;;25.80;23.60;;;;;;;17.67;100.00;97129.27;110502;1242;2406600;-88
2023/06/24 11:03:55;;;;;;;25.30;23.00;;;;;;;17.69;100.00;97129.02;112385;1242;22947;-88
2023/06/24 11:06:25;;;;;;;24.60;22.30;;;;;;;17.72;100.00;97127.55;112380;1242;23161;-88
2023/06/24 11:09:08;;;;;;;22.20;20.00;;;;;;;17.76;100.00;97132.08;112341;1242;22495;-88
2023/06/24 11:11:39;;;;;;;21.60;19.60;;;;;;;17.81;100.00;97131.42;112339;1236;47472;-88
2023/06/24 11:14:13;;;;;;;16.60;15.10;;;;;;;17.82;100.00;97135.21;112412;1242;22508;-88
2023/06/24 11:16:48;;;;;;;17.30;15.00;;;;;;;17.80;100.00;97139.42;112340;1240;23352;-88
2023/06/24 11:19:23;;;;;;;17.60;15.80;;;;;;;17.82;100.00;97141.80;112348;1242;25471;-88
2023/06/24 11:21:56;;;;;;;15.40;13.80;;;;;;;17.83;100.00;97145.62;112313;1242;52610;-88
2023/06/24 11:24:32;;;;;;;19.20;17.00;;;;;;;17.87;100.00;97147.07;112370;1242;22598;-87
2023/06/24 11:27:05;;;;;;;18.00;16.30;;;;;;;17.86;99.91;97144.15;112393;1242;22500;-88
2023/06/24 11:29:38;;;;;;;18.40;16.70;;;;;;;17.82;99.32;97147.70;112383;1242;22509;-88
2023/06/24 11:32:12;;;;;;;17.70;15.90;;;;;;;17.78;99.09;97148.94;112392;1242;24245;-87
2023/06/24 11:34:43;;;;;;;17.20;15.50;;;;;;;17.77;99.25;97142.97;112386;1242;22511;-87
2023/06/24 11:37:22;;;;;;;14.50;11.90;;;;;;;17.77;99.08;97141.02;112365;1242;23820;-88
2023/06/24 11:40:06;;;;;;;13.70;12.30;;;;;;;17.73;98.52;97137.73;112337;1242;57595;-87
2023/06/24 11:42:44;;;;;;;15.40;12.20;;;;;;;17.79;99.12;97130.58;112379;1242;23721;-88
2023/06/24 11:45:24;;;;;;;14.30;12.40;;;;;;;17.84;98.89;97125.48;112428;1242;22575;-88
2023/06/24 11:48:02;;;;;;;13.90;12.20;;;;;;;17.88;99.14;97116.27;112362;1242;22489;-87
2023/06/24 11:50:33;;;;;;;13.70;12.40;;;;;;;17.91;98.91;97119.41;111913;1242;244609;-88
2023/06/24 11:53:02;;;;;;;11.80;10.60;;;;;;;17.93;98.64;97127.86;112367;1242;22506;-87
2023/06/24 11:55:34;;;;;;;12.70;10.70;;;;;;;17.92;97.98;97134.70;112378;1242;22567;-88
2023/06/24 11:58:05;;;;;;;11.50;10.10;;;;;;;17.91;97.66;97136.66;112354;1242;22612;-88
2023/06/24 12:00:35;;;;;;;13.00;11.60;;;;;;;17.89;97.23;97138.92;110989;1237;1766766;-87
2023/06/24 12:03:08;;;;;;;13.20;10.50;;;;;;;17.87;97.13;97136.27;112389;1242;22518;-88
2023/06/24 12:05:44;;;;;;;12.00;9.90;;;;;;;17.85;96.93;97136.56;112348;1242;25224;-88
2023/06/24 12:08:24;;;;;;;11.50;10.20;;;;;;;17.89;97.74;97138.17;112373;1242;24252;-88
2023/06/24 12:10:56;;;;;;;12.70;9.80;;;;;;;17.96;97.86;97134.36;112382;1242;33334;-87